メインページ
METAR-TAF:

METAR-TAF

空港 :

Charlevoix Municipal Airport

Charlevoix, ミシガン州, アメリカ合衆国

緯度: 45-18-17N, 経度: 085-16-29W, 海抜: 204m

現時点の気象観測

当レポートは28分前の10:15(UTC)に作成
西の風 8kt
気温 -6°C
湿度 73%
気圧 1023 hPa
視程: 16.1km
高度2400ftの雲は散在している
高度3000ftの千切れ雲あり
高度3500ftの曇り

METAR: KCVX 231015Z AUTO 27008KT 10SM SCT024 BKN030 OVC035 M06/M10 A3022 RMK AO2 T10571099

時間: 05:43 (10:43 UTC)


TAF: 見つかりません

4,000以上の空港の気象観測と天気予報(METAR報とTAF報)

利用可能な観測所は地図上に黄色い丸と赤い丸で示す。

丸の上にカーソルを重ねると観測所名を参照できる。

次にクリックすると気象観測と天気予報を参照できる。

マップの切り替え:黒色「×」印の緑ボタンをクリックして拡大、「-」印の緑ボタンをクリックして縮小、緑色の三角印をクリックして隣りの地図に切り替え


METAR-TAF: